Middlebury, Indiana
Current Conditions -  °F | °C
As of 1:53 AM on Thursday 23 Oct 2014 (Local Time) from KGSH Reporting Station
Moderate Fog Moderate Fog  
Wind Chill: 32°   Ceiling: 300
Heat Index: 32°   Visibility: 0.25mi
Dew Point: 31°   Wind: 0mph
Humidity: 96%   Direction: NA
Pressure: 30.28"   Gusts: NA
Location:  41.68°N, 85.71°W
Report Text: KGSH 230553Z AUTO 00000KT 1/4SM FG VV003 00/M01 A3028 RMK AO2 SLP260 T00001006 10056 20000 55004
Loading
Personal Weather Stations






























Interactive Weather Map
Tropical Storm Tracking
New forecast layout! Learn more

10-Day Weather Forecast

Advertisements
Track Severe Weather on mobile